WetterOnline ( https://www.wetteronline.de )

Wetter aktuell Neukirchen/Erzgeb.

Aktuelles Wetter: Chemnitz (420m)

6-stündlich | Neueste Meldungen
Ortszeit Temperatur Wetter
Mo, 24.06. 20:00 26.7° C leicht bewölkt
Mo, 24.06. 14:00 25.3° C wolkenlos
Mo, 24.06. 8:00 19.4° C wolkenlos
Mo, 24.06. 2:00 16.0° C wolkenlos
So, 23.06. 20:00 22.9° C wolkenlos
So, 23.06. 14:00 24.4° C wolkig
So, 23.06. 8:00 17.2° C wolkenlos
So, 23.06. 2:00 16.9° C wolkig
Ortszeit Temperatur Wetter
Mo, 24.06. 21:30 23.3° C fast wolkenlos
Mo, 24.06. 21:20 23.3° C fast wolkenlos
Mo, 24.06. 21:10 23.6° C wolkenlos
Mo, 24.06. 21:00 24.5° C leicht bewölkt
Mo, 24.06. 20:50 24.5° C leicht bewölkt
Mo, 24.06. 20:40 25.1° C wolkig
Mo, 24.06. 20:30 25.8° C leicht bewölkt
Mo, 24.06. 20:00 26.7° C leicht bewölkt
Mo, 24.06. 19:30 27.1° C fast wolkenlos
Mo, 24.06. 19:00 27.2° C fast wolkenlos
Mo, 24.06. 18:30 27.6° C wolkenlos
Ortszeit Relative Feuchte Sichtweite
Mo, 24.06. 20:00 33% 65 km
Mo, 24.06. 14:00 28% 21 km
Mo, 24.06. 8:00 53% 25 km
Mo, 24.06. 2:00 73% 30 km
So, 23.06. 20:00 47% 45 km
So, 23.06. 14:00 50% 17 km
So, 23.06. 8:00 63% 19 km
So, 23.06. 2:00 62% 35 km
Ortszeit Relative Feuchte Sichtweite
Mo, 24.06. 21:30 36% 65 km
Mo, 24.06. 21:20 36% -
Mo, 24.06. 21:10 36% -
Mo, 24.06. 21:00 35% 65 km
Mo, 24.06. 20:50 35% -
Mo, 24.06. 20:40 34% -
Mo, 24.06. 20:30 33% 65 km
Mo, 24.06. 20:00 33% 65 km
Mo, 24.06. 19:30 31% 50 km
Mo, 24.06. 19:00 30% 35 km
Mo, 24.06. 18:30 29% 50 km
Ortszeit Niederschlagsmenge Niederschlagsart
Mo, 24.06. 20:00 0.0 l/m2 in 12 Std. -
Mo, 24.06. 14:00 0.0 l/m2 in 6 Std. -
Mo, 24.06. 8:00 0.0 l/m2 in 12 Std. -
Mo, 24.06. 2:00 0.0 l/m2 in 6 Std. -
So, 23.06. 20:00 0.0 l/m2 in 12 Std. -
So, 23.06. 14:00 0.0 l/m2 in 6 Std. -
So, 23.06. 8:00 0.0 l/m2 in 12 Std. -
So, 23.06. 2:00 0.0 l/m2 in 6 Std. -
Ortszeit Niederschlagsmenge Niederschlagsart
Mo, 24.06. 21:30 0.0 l/m2 in 1 Std. -
Mo, 24.06. 21:20 keine Meldung -
Mo, 24.06. 21:10 keine Meldung -
Mo, 24.06. 21:00 0.0 l/m2 in 1 Std. -
Mo, 24.06. 20:50 keine Meldung -
Mo, 24.06. 20:40 keine Meldung -
Mo, 24.06. 20:30 0.0 l/m2 in 1 Std. -
Mo, 24.06. 20:00 0.0 l/m2 in 1 Std. -
Mo, 24.06. 19:30 0.0 l/m2 in 1 Std. -
Mo, 24.06. 19:00 0.0 l/m2 in 1 Std. -
Mo, 24.06. 18:30 0.0 l/m2 in 1 Std. -
Ortszeit Stärke Spitze Richtung
km/h Bft. km/h Grad Sektor
Mo, 24.06. 20:00 11 2 25 120° SO
Mo, 24.06. 14:00 11 2 25 50° NO
Mo, 24.06. 8:00 9 2 15 70° O
Mo, 24.06. 2:00 6 1 24 120° SO
So, 23.06. 20:00 17 3 31 50° NO
So, 23.06. 14:00 14 3 40 80° O
So, 23.06. 8:00 14 3 22 50° NO
So, 23.06. 2:00 11 2 25 60° NO
Ortszeit Stärke Spitze Richtung
km/h Bft. km/h Grad Sektor
Mo, 24.06. 21:30 9 2 17 120° SO
Mo, 24.06. 21:20 9 2 - 120° SO
Mo, 24.06. 21:10 7 2 - 130° SO
Mo, 24.06. 21:00 7 2 22 130° SO
Mo, 24.06. 20:50 7 2 - 130° SO
Mo, 24.06. 20:40 11 2 - 120° SO
Mo, 24.06. 20:30 11 2 22 120° SO
Mo, 24.06. 20:00 11 2 25 120° SO
Mo, 24.06. 19:30 11 2 25 110° O
Mo, 24.06. 19:00 14 3 25 110° O
Mo, 24.06. 18:30 14 3 25 110° O
Ortszeit Untergrenze Bedeckung Gattung
total tief tief mittel hoch
Mo, 24.06. 20:00 12000 m 3/8 0/8 - - -
Mo, 24.06. 14:00 - 0/8 0/8 - - -
Mo, 24.06. 8:00 - 0/8 0/8 - - -
Mo, 24.06. 2:00 - 0/8 0/8 - - -
So, 23.06. 20:00 - 0/8 0/8 - - -
So, 23.06. 14:00 1500 m 5/8 5/8 - - -
So, 23.06. 8:00 - 0/8 0/8 - - -
So, 23.06. 2:00 1800 m 8/8 1/8 - - -
Ortszeit Bedeckungsgrad in Achtel und Wolkenuntergrenze
Mo, 24.06. 21:30 1(10500m)
Mo, 24.06. 21:20 1(10500m)
Mo, 24.06. 21:10 keine Wolken
Mo, 24.06. 21:00 4(10500m)
Mo, 24.06. 20:50 4(10500m)
Mo, 24.06. 20:40 7(10500m)
Mo, 24.06. 20:30 6(10500m)
Mo, 24.06. 20:00 3(12000m)
Mo, 24.06. 19:30 1(12000m)
Mo, 24.06. 19:00 2(12000m)
Mo, 24.06. 18:30 3(12000m)
Ortszeit Luftdruck NN (hPa) Tendenz (hPa in 3 Std.)
Mo, 24.06. 20:00 1021 - 0,1
Mo, 24.06. 14:00 1022 - 0,8
Mo, 24.06. 8:00 1024 + 0,9
Mo, 24.06. 2:00 1023 + 0,9
So, 23.06. 20:00 1020 + 0,5
So, 23.06. 14:00 1019 + 0,3
So, 23.06. 8:00 1020 + 0,8
So, 23.06. 2:00 1019 + 0,5
Ortszeit Luftdruck NN (hPa) Tendenz (hPa in 3 Std.)
Mo, 24.06. 21:30 1022 + 0,5
Mo, 24.06. 21:20 1022 keine Meldung
Mo, 24.06. 21:10 1022 keine Meldung
Mo, 24.06. 21:00 1021 + 0,3
Mo, 24.06. 20:50 1021 keine Meldung
Mo, 24.06. 20:40 1021 keine Meldung
Mo, 24.06. 20:30 1021 + 0,1
Mo, 24.06. 20:00 1021 - 0,1
Mo, 24.06. 19:30 1020 - 0,3
Mo, 24.06. 19:00 1020 - 0,6
Mo, 24.06. 18:30 1020 - 0,5
Ortszeit Schneehöhe (cm)
Mo, 24.06. 20:00 -
Mo, 24.06. 14:00 -
Mo, 24.06. 8:00 -
Mo, 24.06. 2:00 -
So, 23.06. 20:00 -
So, 23.06. 14:00 -
So, 23.06. 8:00 -
So, 23.06. 2:00 -
Ortszeit Schneehöhe (cm)
Mo, 24.06. 21:30 -
Mo, 24.06. 21:20 -
Mo, 24.06. 21:10 -
Mo, 24.06. 21:00 -
Mo, 24.06. 20:50 -
Mo, 24.06. 20:40 -
Mo, 24.06. 20:30 -
Mo, 24.06. 20:00 -
Mo, 24.06. 19:30 -
Mo, 24.06. 19:00 -
Mo, 24.06. 18:30 -
Link zu dieser Seite / Seite empfehlen

Das Wetter in ...